sensor_id;sensor_type;location;lat;lon;timestamp;pressure;altitude;pressure_sealevel;temperature;humidity
7662;BME280;30314;48.184;11.510;2023-03-18T00:00:09;95521.84;;;4.56;100.00
7662;BME280;30314;48.184;11.510;2023-03-18T00:02:39;95514.75;;;4.51;100.00
7662;BME280;30314;48.184;11.510;2023-03-18T00:05:07;95525.00;;;4.63;100.00
7662;BME280;30314;48.184;11.510;2023-03-18T00:07:34;95519.47;;;4.59;100.00
7662;BME280;30314;48.184;11.510;2023-03-18T00:10:03;95521.84;;;4.56;100.00
7662;BME280;30314;48.184;11.510;2023-03-18T00:12:29;95528.13;;;4.60;100.00
7662;BME280;30314;48.184;11.510;2023-03-18T00:14:58;95515.25;;;4.48;100.00
7662;BME280;30314;48.184;11.510;2023-03-18T00:17:25;95522.78;;;4.39;100.00
7662;BME280;30314;48.184;11.510;2023-03-18T00:19:51;95520.69;;;4.41;100.00
7662;BME280;30314;48.184;11.510;2023-03-18T00:22:18;95517.78;;;4.32;100.00
7662;BME280;30314;48.184;11.510;2023-03-18T00:24:44;95525.69;;;4.43;100.00
7662;BME280;30314;48.184;11.510;2023-03-18T00:27:11;95516.72;;;4.23;100.00
7662;BME280;30314;48.184;11.510;2023-03-18T00:29:37;95535.34;;;4.37;100.00
7662;BME280;30314;48.184;11.510;2023-03-18T00:32:06;95525.84;;;4.20;100.00
7662;BME280;30314;48.184;11.510;2023-03-18T00:34:34;95531.00;;;4.10;100.00
7662;BME280;30314;48.184;11.510;2023-03-18T00:37:00;95528.97;;;4.17;100.00
7662;BME280;30314;48.184;11.510;2023-03-18T00:39:28;95539.38;;;4.12;100.00
7662;BME280;30314;48.184;11.510;2023-03-18T00:41:58;95547.22;;;4.12;100.00
7662;BME280;30314;48.184;11.510;2023-03-18T00:44:27;95549.56;;;4.08;100.00
7662;BME280;30314;48.184;11.510;2023-03-18T00:46:54;95540.91;;;4.08;100.00
7662;BME280;30314;48.184;11.510;2023-03-18T00:49:20;95541.22;;;4.12;100.00
7662;BME280;30314;48.184;11.510;2023-03-18T00:51:47;95549.28;;;4.10;100.00
7662;BME280;30314;48.184;11.510;2023-03-18T00:54:13;95548.75;;;4.08;100.00
7662;BME280;30314;48.184;11.510;2023-03-18T00:56:43;95540.34;;;4.01;100.00
7662;BME280;30314;48.184;11.510;2023-03-18T00:59:09;95548.19;;;4.01;100.00
7662;BME280;30314;48.184;11.510;2023-03-18T01:01:37;95548.53;;;4.10;100.00
7662;BME280;30314;48.184;11.510;2023-03-18T01:04:05;95560.84;;;4.19;100.00
7662;BME280;30314;48.184;11.510;2023-03-18T01:06:34;95545.34;;;4.07;100.00
7662;BME280;30314;48.184;11.510;2023-03-18T01:09:02;95541.34;;;3.94;100.00
7662;BME280;30314;48.184;11.510;2023-03-18T01:11:30;95539.28;;;3.97;100.00
7662;BME280;30314;48.184;11.510;2023-03-18T01:13:57;95539.25;;;3.91;100.00
7662;BME280;30314;48.184;11.510;2023-03-18T01:16:25;95541.81;;;3.86;100.00
7662;BME280;30314;48.184;11.510;2023-03-18T01:18:52;95559.56;;;3.84;100.00
7662;BME280;30314;48.184;11.510;2023-03-18T01:21:19;95539.66;;;3.78;100.00
7662;BME280;30314;48.184;11.510;2023-03-18T01:23:51;95496.72;;;3.63;100.00
7662;BME280;30314;48.184;11.510;2023-03-18T01:26:18;95553.56;;;3.84;100.00
7662;BME280;30314;48.184;11.510;2023-03-18T01:28:45;95538.00;;;3.66;100.00
7662;BME280;30314;48.184;11.510;2023-03-18T01:31:13;95553.72;;;3.72;100.00
7662;BME280;30314;48.184;11.510;2023-03-18T01:33:43;95543.78;;;3.69;100.00
7662;BME280;30314;48.184;11.510;2023-03-18T01:36:09;95547.94;;;3.70;100.00
7662;BME280;30314;48.184;11.510;2023-03-18T01:38:37;95548.66;;;3.60;100.00
7662;BME280;30314;48.184;11.510;2023-03-18T01:41:10;95538.16;;;3.55;100.00
7662;BME280;30314;48.184;11.510;2023-03-18T01:43:40;95547.78;;;3.49;100.00
7662;BME280;30314;48.184;11.510;2023-03-18T01:49:08;95546.75;;;3.50;100.00
7662;BME280;30314;48.184;11.510;2023-03-18T01:51:39;95555.25;;;3.40;100.00
7662;BME280;30314;48.184;11.510;2023-03-18T01:54:07;95546.56;;;3.29;100.00
7662;BME280;30314;48.184;11.510;2023-03-18T01:56:38;95563.84;;;3.35;100.00
7662;BME280;30314;48.184;11.510;2023-03-18T01:59:07;95559.09;;;3.32;100.00
7662;BME280;30314;48.184;11.510;2023-03-18T02:02:05;95564.31;;;3.32;100.00
7662;BME280;30314;48.184;11.510;2023-03-18T02:04:38;95567.19;;;3.31;100.00
7662;BME280;30314;48.184;11.510;2023-03-18T02:07:12;95566.94;;;3.32;100.00
7662;BME280;30314;48.184;11.510;2023-03-18T02:09:38;95556.38;;;3.22;100.00
7662;BME280;30314;48.184;11.510;2023-03-18T02:12:05;95568.69;;;3.27;100.00
7662;BME280;30314;48.184;11.510;2023-03-18T02:14:34;95567.00;;;3.15;100.00
7662;BME280;30314;48.184;11.510;2023-03-18T02:17:03;95562.59;;;3.16;100.00
7662;BME280;30314;48.184;11.510;2023-03-18T02:20:02;95566.06;;;3.21;100.00
7662;BME280;30314;48.184;11.510;2023-03-18T02:22:47;95572.31;;;3.20;100.00
7662;BME280;30314;48.184;11.510;2023-03-18T02:25:30;95570.47;;;3.21;100.00
7662;BME280;30314;48.184;11.510;2023-03-18T02:28:06;95569.44;;;3.22;100.00
7662;BME280;30314;48.184;11.510;2023-03-18T02:30:39;95565.81;;;3.23;100.00
7662;BME280;30314;48.184;11.510;2023-03-18T02:33:09;95573.88;;;3.21;100.00
7662;BME280;30314;48.184;11.510;2023-03-18T02:35:37;95569.94;;;3.19;100.00
7662;BME280;30314;48.184;11.510;2023-03-18T02:38:04;95569.41;;;3.17;100.00
7662;BME280;30314;48.184;11.510;2023-03-18T02:40:36;95564.72;;;3.19;100.00
7662;BME280;30314;48.184;11.510;2023-03-18T02:43:29;95567.59;;;3.17;100.00
7662;BME280;30314;48.184;11.510;2023-03-18T02:46:11;95582.78;;;3.26;100.00
7662;BME280;30314;48.184;11.510;2023-03-18T02:48:44;95574.97;;;3.26;100.00
7662;BME280;30314;48.184;11.510;2023-03-18T02:51:12;95570.03;;;3.29;100.00
7662;BME280;30314;48.184;11.510;2023-03-18T02:53:40;95580.78;;;3.33;100.00
7662;BME280;30314;48.184;11.510;2023-03-18T02:56:07;95577.16;;;3.34;100.00
7662;BME280;30314;48.184;11.510;2023-03-18T02:58:35;95579.03;;;3.38;100.00
7662;BME280;30314;48.184;11.510;2023-03-18T03:01:04;95586.16;;;3.48;100.00
7662;BME280;30314;48.184;11.510;2023-03-18T03:03:31;95581.16;;;3.47;100.00
7662;BME280;30314;48.184;11.510;2023-03-18T03:05:57;95583.09;;;3.57;100.00
7662;BME280;30314;48.184;11.510;2023-03-18T03:08:24;95589.41;;;3.61;100.00
7662;BME280;30314;48.184;11.510;2023-03-18T03:10:50;95593.34;;;3.63;100.00
7662;BME280;30314;48.184;11.510;2023-03-18T03:13:19;95601.75;;;3.71;100.00
7662;BME280;30314;48.184;11.510;2023-03-18T03:15:47;95592.38;;;3.75;100.00
7662;BME280;30314;48.184;11.510;2023-03-18T03:18:14;95593.50;;;3.79;100.00
7662;BME280;30314;48.184;11.510;2023-03-18T03:20:42;95610.56;;;3.92;100.00
7662;BME280;30314;48.184;11.510;2023-03-18T03:23:12;95592.69;;;3.78;100.00
7662;BME280;30314;48.184;11.510;2023-03-18T03:25:39;95603.19;;;3.84;100.00
7662;BME280;30314;48.184;11.510;2023-03-18T03:28:06;95612.66;;;3.95;100.00
7662;BME280;30314;48.184;11.510;2023-03-18T03:30:34;95614.28;;;3.96;100.00
7662;BME280;30314;48.184;11.510;2023-03-18T03:33:00;95605.41;;;3.97;100.00
7662;BME280;30314;48.184;11.510;2023-03-18T03:35:28;95604.34;;;3.98;100.00
7662;BME280;30314;48.184;11.510;2023-03-18T03:37:54;95607.50;;;4.00;100.00
7662;BME280;30314;48.184;11.510;2023-03-18T03:40:21;95614.09;;;4.08;100.00
7662;BME280;30314;48.184;11.510;2023-03-18T03:42:49;95625.69;;;4.22;100.00
7662;BME280;30314;48.184;11.510;2023-03-18T03:45:17;95609.19;;;4.17;100.00
7662;BME280;30314;48.184;11.510;2023-03-18T03:47:45;95606.84;;;4.15;100.00
7662;BME280;30314;48.184;11.510;2023-03-18T03:50:14;95623.69;;;4.30;100.00
7662;BME280;30314;48.184;11.510;2023-03-18T03:52:41;95629.94;;;4.29;100.00
7662;BME280;30314;48.184;11.510;2023-03-18T03:55:12;95617.13;;;4.27;100.00
7662;BME280;30314;48.184;11.510;2023-03-18T03:57:39;95622.09;;;4.29;100.00
7662;BME280;30314;48.184;11.510;2023-03-18T04:00:11;95630.47;;;4.31;100.00
7662;BME280;30314;48.184;11.510;2023-03-18T04:02:47;95630.25;;;4.38;100.00
7662;BME280;30314;48.184;11.510;2023-03-18T04:05:17;95639.47;;;4.45;100.00
7662;BME280;30314;48.184;11.510;2023-03-18T04:07:46;95635.97;;;4.34;100.00
7662;BME280;30314;48.184;11.510;2023-03-18T04:10:15;95629.94;;;4.29;100.00
7662;BME280;30314;48.184;11.510;2023-03-18T04:12:43;95639.91;;;4.32;100.00
7662;BME280;30314;48.184;11.510;2023-03-18T04:15:12;95642.22;;;4.28;100.00
7662;BME280;30314;48.184;11.510;2023-03-18T04:17:41;95635.66;;;4.26;100.00
7662;BME280;30314;48.184;11.510;2023-03-18T04:20:09;95641.47;;;4.33;100.00
7662;BME280;30314;48.184;11.510;2023-03-18T04:22:36;95619.94;;;4.20;100.00
7662;BME280;30314;48.184;11.510;2023-03-18T04:25:05;95637.28;;;4.32;100.00
7662;BME280;30314;48.184;11.510;2023-03-18T04:27:32;95645.16;;;4.37;100.00
7662;BME280;30314;48.184;11.510;2023-03-18T04:30:05;95627.56;;;4.27;100.00
7662;BME280;30314;48.184;11.510;2023-03-18T04:32:38;95638.84;;;4.33;100.00
7662;BME280;30314;48.184;11.510;2023-03-18T04:35:05;95639.38;;;4.30;100.00
7662;BME280;30314;48.184;11.510;2023-03-18T04:37:32;95638.00;;;4.22;100.00
7662;BME280;30314;48.184;11.510;2023-03-18T04:40:04;95643.97;;;4.17;100.00
7662;BME280;30314;48.184;11.510;2023-03-18T04:42:31;95636.59;;;4.14;100.00
7662;BME280;30314;48.184;11.510;2023-03-18T04:44:58;95639.72;;;4.11;100.00
7662;BME280;30314;48.184;11.510;2023-03-18T04:47:24;95654.91;;;4.14;100.00
7662;BME280;30314;48.184;11.510;2023-03-18T04:49:52;95601.34;;;3.84;100.00
7662;BME280;30314;48.184;11.510;2023-03-18T04:52:19;95644.75;;;4.18;100.00
7662;BME280;30314;48.184;11.510;2023-03-18T04:54:46;95635.81;;;4.08;100.00
7662;BME280;30314;48.184;11.510;2023-03-18T04:57:13;95631.59;;;4.07;100.00
7662;BME280;30314;48.184;11.510;2023-03-18T04:59:47;95639.50;;;4.13;100.00
7662;BME280;30314;48.184;11.510;2023-03-18T05:02:14;95628.19;;;4.07;100.00
7662;BME280;30314;48.184;11.510;2023-03-18T05:04:40;95633.47;;;4.12;100.00
7662;BME280;30314;48.184;11.510;2023-03-18T05:07:11;95625.59;;;4.07;100.00
7662;BME280;30314;48.184;11.510;2023-03-18T05:09:41;95646.06;;;4.15;100.00
7662;BME280;30314;48.184;11.510;2023-03-18T05:12:12;95656.75;;;4.14;100.00
7662;BME280;30314;48.184;11.510;2023-03-18T05:14:41;95635.25;;;4.06;100.00
7662;BME280;30314;48.184;11.510;2023-03-18T05:17:10;95645.91;;;4.00;100.00
7662;BME280;30314;48.184;11.510;2023-03-18T05:19:53;95628.84;;;3.92;100.00
7662;BME280;30314;48.184;11.510;2023-03-18T05:22:21;95647.47;;;4.01;100.00
7662;BME280;30314;48.184;11.510;2023-03-18T05:24:54;95651.88;;;3.95;100.00
7662;BME280;30314;48.184;11.510;2023-03-18T05:27:23;95646.59;;;3.90;100.00
7662;BME280;30314;48.184;11.510;2023-03-18T05:29:57;95655.56;;;3.99;100.00
7662;BME280;30314;48.184;11.510;2023-03-18T05:32:31;95638.63;;;4.02;100.00
7662;BME280;30314;48.184;11.510;2023-03-18T05:35:03;95649.31;;;4.00;100.00
7662;BME280;30314;48.184;11.510;2023-03-18T05:37:35;95639.56;;;3.90;100.00
7662;BME280;30314;48.184;11.510;2023-03-18T05:40:06;95652.69;;;4.01;100.00
7662;BME280;30314;48.184;11.510;2023-03-18T05:42:40;95655.56;;;3.99;100.00
7662;BME280;30314;48.184;11.510;2023-03-18T05:45:31;95669.47;;;4.05;100.00
7662;BME280;30314;48.184;11.510;2023-03-18T05:47:59;95661.09;;;4.03;100.00
7662;BME280;30314;48.184;11.510;2023-03-18T05:50:34;95659.56;;;4.07;100.00
7662;BME280;30314;48.184;11.510;2023-03-18T05:53:05;95675.81;;;4.14;100.00
7662;BME280;30314;48.184;11.510;2023-03-18T05:55:37;95672.97;;;4.16;100.00
7662;BME280;30314;48.184;11.510;2023-03-18T05:58:03;95666.41;;;4.13;100.00
7662;BME280;30314;48.184;11.510;2023-03-18T06:00:33;95673.34;;;4.30;100.00
7662;BME280;30314;48.184;11.510;2023-03-18T06:03:00;95674.91;;;4.31;100.00
7662;BME280;30314;48.184;11.510;2023-03-18T06:05:28;95637.84;;;4.06;100.00
7662;BME280;30314;48.184;11.510;2023-03-18T06:07:56;95663.13;;;4.28;100.00
7662;BME280;30314;48.184;11.510;2023-03-18T06:10:23;95644.00;;;4.22;100.00
7662;BME280;30314;48.184;11.510;2023-03-18T06:12:51;95677.13;;;4.44;100.00
7662;BME280;30314;48.184;11.510;2023-03-18T06:15:18;95639.56;;;4.23;100.00
7662;BME280;30314;48.184;11.510;2023-03-18T06:17:45;95597.06;;;4.00;100.00
7662;BME280;30314;48.184;11.510;2023-03-18T06:20:13;95669.59;;;4.53;100.00
7662;BME280;30314;48.184;11.510;2023-03-18T06:22:41;95685.59;;;4.62;100.00
7662;BME280;30314;48.184;11.510;2023-03-18T06:25:09;95610.25;;;4.21;100.00
7662;BME280;30314;48.184;11.510;2023-03-18T06:27:37;95647.84;;;4.47;100.00
7662;BME280;30314;48.184;11.510;2023-03-18T06:30:05;95663.34;;;4.59;100.00
7662;BME280;30314;48.184;11.510;2023-03-18T06:32:34;95659.94;;;4.59;100.00
7662;BME280;30314;48.184;11.510;2023-03-18T06:35:01;95688.91;;;4.85;100.00
7662;BME280;30314;48.184;11.510;2023-03-18T06:37:45;95673.72;;;4.87;100.00
7662;BME280;30314;48.184;11.510;2023-03-18T06:40:12;95673.78;;;4.97;100.00
7662;BME280;30314;48.184;11.510;2023-03-18T06:42:39;95646.28;;;4.89;100.00
7662;BME280;30314;48.184;11.510;2023-03-18T06:45:15;95674.91;;;5.17;100.00
7662;BME280;30314;48.184;11.510;2023-03-18T06:47:51;95638.97;;;4.97;100.00
7662;BME280;30314;48.184;11.510;2023-03-18T06:50:17;95662.09;;;5.20;100.00
7662;BME280;30314;48.184;11.510;2023-03-18T06:52:44;95680.81;;;5.50;100.00
7662;BME280;30314;48.184;11.510;2023-03-18T06:55:14;95685.06;;;5.67;100.00
7662;BME280;30314;48.184;11.510;2023-03-18T06:57:43;95642.06;;;5.52;100.00
7662;BME280;30314;48.184;11.510;2023-03-18T07:00:14;95671.97;;;5.82;100.00
7662;BME280;30314;48.184;11.510;2023-03-18T07:02:41;95678.56;;;5.95;100.00
7662;BME280;30314;48.184;11.510;2023-03-18T07:05:11;95684.34;;;6.02;100.00
7662;BME280;30314;48.184;11.510;2023-03-18T07:07:39;95693.00;;;6.24;100.00
7662;BME280;30314;48.184;11.510;2023-03-18T07:10:08;95661.00;;;6.27;100.00
7662;BME280;30314;48.184;11.510;2023-03-18T07:12:35;95680.16;;;6.53;100.00
7662;BME280;30314;48.184;11.510;2023-03-18T07:15:02;95654.69;;;6.54;100.00
7662;BME280;30314;48.184;11.510;2023-03-18T07:17:29;95618.78;;;6.33;100.00
7662;BME280;30314;48.184;11.510;2023-03-18T07:19:56;95657.81;;;6.97;100.00
7662;BME280;30314;48.184;11.510;2023-03-18T07:22:23;95646.50;;;7.07;100.00
7662;BME280;30314;48.184;11.510;2023-03-18T07:24:50;95670.47;;;7.51;100.00
7662;BME280;30314;48.184;11.510;2023-03-18T07:27:17;95682.66;;;7.86;100.00
7662;BME280;30314;48.184;11.510;2023-03-18T07:29:44;95694.25;;;8.25;100.00
7662;BME280;30314;48.184;11.510;2023-03-18T07:32:10;95645.13;;;8.15;100.00
7662;BME280;30314;48.184;11.510;2023-03-18T07:34:37;95679.78;;;8.57;100.00
7662;BME280;30314;48.184;11.510;2023-03-18T07:37:03;95687.34;;;8.64;100.00
7662;BME280;30314;48.184;11.510;2023-03-18T07:39:30;95691.09;;;8.58;100.00
7662;BME280;30314;48.184;11.510;2023-03-18T07:41:57;95683.53;;;8.51;100.00
7662;BME280;30314;48.184;11.510;2023-03-18T07:44:28;95684.91;;;8.43;100.00
7662;BME280;30314;48.184;11.510;2023-03-18T07:46:54;95670.75;;;8.34;100.00
7662;BME280;30314;48.184;11.510;2023-03-18T07:49:21;95679.16;;;8.41;100.00
7662;BME280;30314;48.184;11.510;2023-03-18T07:51:49;95656.09;;;8.28;100.00
7662;BME280;30314;48.184;11.510;2023-03-18T07:54:15;95686.91;;;8.57;100.00
7662;BME280;30314;48.184;11.510;2023-03-18T07:56:43;95664.88;;;8.48;99.19
7662;BME280;30314;48.184;11.510;2023-03-18T07:59:09;95700.19;;;8.71;97.42
7662;BME280;30314;48.184;11.510;2023-03-18T08:01:37;95678.44;;;8.60;100.00
7662;BME280;30314;48.184;11.510;2023-03-18T08:04:04;95667.44;;;8.53;99.39
7662;BME280;30314;48.184;11.510;2023-03-18T08:06:31;95657.13;;;8.62;98.50
7662;BME280;30314;48.184;11.510;2023-03-18T08:08:58;95705.28;;;9.21;87.95
7662;BME280;30314;48.184;11.510;2023-03-18T08:11:25;95693.88;;;9.26;85.39
7662;BME280;30314;48.184;11.510;2023-03-18T08:13:52;95688.16;;;8.94;87.40
7662;BME280;30314;48.184;11.510;2023-03-18T08:16:18;95677.50;;;9.05;87.13
7662;BME280;30314;48.184;11.510;2023-03-18T08:18:45;95667.41;;;9.12;84.81
7662;BME280;30314;48.184;11.510;2023-03-18T08:21:11;95679.13;;;9.00;86.38
7662;BME280;30314;48.184;11.510;2023-03-18T08:23:38;95681.31;;;9.18;83.98
7662;BME280;30314;48.184;11.510;2023-03-18T08:26:04;95641.97;;;9.02;83.33
7662;BME280;30314;48.184;11.510;2023-03-18T08:28:31;95695.22;;;9.48;82.31
7662;BME280;30314;48.184;11.510;2023-03-18T08:30:57;95691.75;;;9.52;82.66
7662;BME280;30314;48.184;11.510;2023-03-18T08:33:26;95707.53;;;9.77;80.97
7662;BME280;30314;48.184;11.510;2023-03-18T08:35:53;95705.03;;;9.85;80.00
7662;BME280;30314;48.184;11.510;2023-03-18T08:38:21;95676.47;;;9.73;81.05
7662;BME280;30314;48.184;11.510;2023-03-18T08:40:49;95702.63;;;10.08;79.69
7662;BME280;30314;48.184;11.510;2023-03-18T08:43:16;95690.72;;;10.11;76.09
7662;BME280;30314;48.184;11.510;2023-03-18T08:45:43;95690.88;;;10.00;75.74
7662;BME280;30314;48.184;11.510;2023-03-18T08:48:10;95652.72;;;9.93;75.08
7662;BME280;30314;48.184;11.510;2023-03-18T08:50:36;95681.53;;;10.08;77.61
7662;BME280;30314;48.184;11.510;2023-03-18T08:53:03;95635.78;;;9.80;82.10
7662;BME280;30314;48.184;11.510;2023-03-18T08:55:35;95650.22;;;10.01;84.49
7662;BME280;30314;48.184;11.510;2023-03-18T08:58:05;95712.66;;;10.45;84.19
7662;BME280;30314;48.184;11.510;2023-03-18T09:00:33;95674.38;;;10.28;80.17
7662;BME280;30314;48.184;11.510;2023-03-18T09:03:01;95706.66;;;10.58;79.69
7662;BME280;30314;48.184;11.510;2023-03-18T09:05:28;95711.28;;;10.66;81.53
7662;BME280;30314;48.184;11.510;2023-03-18T09:07:56;95697.41;;;10.75;77.33
7662;BME280;30314;48.184;11.510;2023-03-18T09:10:24;95709.09;;;10.88;76.31
7662;BME280;30314;48.184;11.510;2023-03-18T09:12:51;95701.97;;;11.02;72.62
7662;BME280;30314;48.184;11.510;2023-03-18T09:15:18;95623.91;;;10.63;75.72
7662;BME280;30314;48.184;11.510;2023-03-18T09:17:46;95698.66;;;11.24;69.47
7662;BME280;30314;48.184;11.510;2023-03-18T09:20:33;95607.59;;;10.61;70.28
7662;BME280;30314;48.184;11.510;2023-03-18T09:23:00;95680.84;;;11.16;70.44
7662;BME280;30314;48.184;11.510;2023-03-18T09:25:27;95688.00;;;11.30;69.86
7662;BME280;30314;48.184;11.510;2023-03-18T09:27:54;95696.59;;;11.35;68.07
7662;BME280;30314;48.184;11.510;2023-03-18T09:30:20;95708.28;;;11.48;64.39
7662;BME280;30314;48.184;11.510;2023-03-18T09:32:47;95666.84;;;11.30;65.23
7662;BME280;30314;48.184;11.510;2023-03-18T09:35:14;95684.28;;;11.59;63.63
7662;BME280;30314;48.184;11.510;2023-03-18T09:37:41;95685.53;;;11.61;64.25
7662;BME280;30314;48.184;11.510;2023-03-18T09:40:25;95687.41;;;11.61;68.39
7662;BME280;30314;48.184;11.510;2023-03-18T09:43:24;95706.69;;;11.75;66.60
7662;BME280;30314;48.184;11.510;2023-03-18T09:51:54;95694.22;;;11.76;65.23
7662;BME280;30314;48.184;11.510;2023-03-18T09:54:40;95699.59;;;11.84;63.00
7662;BME280;30314;48.184;11.510;2023-03-18T09:57:40;95699.97;;;11.92;65.77
7662;BME280;30314;48.184;11.510;2023-03-18T10:00:18;95701.31;;;12.03;66.89
7662;BME280;30314;48.184;11.510;2023-03-18T10:02:52;95700.97;;;12.19;64.51
7662;BME280;30314;48.184;11.510;2023-03-18T10:05:31;95692.75;;;12.20;63.94
7662;BME280;30314;48.184;11.510;2023-03-18T10:08:05;95689.97;;;12.25;63.65
7662;BME280;30314;48.184;11.510;2023-03-18T10:10:37;95711.78;;;12.45;62.21
7662;BME280;30314;48.184;11.510;2023-03-18T10:13:15;95699.84;;;12.57;58.08
7662;BME280;30314;48.184;11.510;2023-03-18T10:15:54;95713.03;;;12.71;58.64
7662;BME280;30314;48.184;11.510;2023-03-18T10:18:29;95710.16;;;12.81;59.39
7662;BME280;30314;48.184;11.510;2023-03-18T10:26:51;95688.63;;;13.14;54.75
7662;BME280;30314;48.184;11.510;2023-03-18T10:29:33;95693.94;;;13.14;54.45
7662;BME280;30314;48.184;11.510;2023-03-18T10:35:36;95691.88;;;13.43;53.10
7662;BME280;30314;48.184;11.510;2023-03-18T10:38:21;95682.81;;;13.44;56.87
7662;BME280;30314;48.184;11.510;2023-03-18T10:40:50;95685.22;;;13.72;51.25
7662;BME280;30314;48.184;11.510;2023-03-18T10:43:22;95675.84;;;13.65;48.94
7662;BME280;30314;48.184;11.510;2023-03-18T10:45:58;95679.44;;;13.70;49.44
7662;BME280;30314;48.184;11.510;2023-03-18T10:48:32;95660.72;;;13.84;53.83
7662;BME280;30314;48.184;11.510;2023-03-18T10:51:11;95685.00;;;14.26;50.09
7662;BME280;30314;48.184;11.510;2023-03-18T10:54:01;95669.50;;;14.28;48.09
7662;BME280;30314;48.184;11.510;2023-03-18T10:56:34;95669.00;;;14.52;47.77
7662;BME280;30314;48.184;11.510;2023-03-18T10:59:09;95631.09;;;14.17;49.27
7662;BME280;30314;48.184;11.510;2023-03-18T11:01:37;95662.13;;;14.51;48.45
7662;BME280;30314;48.184;11.510;2023-03-18T11:04:05;95639.94;;;14.56;49.62
7662;BME280;30314;48.184;11.510;2023-03-18T11:06:59;95657.69;;;14.82;46.83
7662;BME280;30314;48.184;11.510;2023-03-18T11:09:32;95654.47;;;15.06;45.62
7662;BME280;30314;48.184;11.510;2023-03-18T11:12:05;95656.38;;;15.36;42.95
7662;BME280;30314;48.184;11.510;2023-03-18T11:14:33;95636.47;;;15.42;43.67
7662;BME280;30314;48.184;11.510;2023-03-18T11:17:19;95638.72;;;15.61;44.67
7662;BME280;30314;48.184;11.510;2023-03-18T11:19:58;95650.28;;;15.66;44.98
7662;BME280;30314;48.184;11.510;2023-03-18T11:22:26;95643.72;;;15.63;47.36
7662;BME280;30314;48.184;11.510;2023-03-18T11:27:40;95639.13;;;15.72;43.65
7662;BME280;30314;48.184;11.510;2023-03-18T11:30:18;95638.03;;;15.73;41.41
7662;BME280;30314;48.184;11.510;2023-03-18T11:33:11;95603.81;;;15.33;43.63
7662;BME280;30314;48.184;11.510;2023-03-18T11:35:42;95590.22;;;15.26;44.23
7662;BME280;30314;48.184;11.510;2023-03-18T11:38:28;95613.00;;;15.35;42.51
7662;BME280;30314;48.184;11.510;2023-03-18T11:41:05;95631.53;;;15.62;42.99
7662;BME280;30314;48.184;11.510;2023-03-18T11:43:35;95622.63;;;15.58;41.02
7662;BME280;30314;48.184;11.510;2023-03-18T11:46:07;95595.50;;;15.34;43.04
7662;BME280;30314;48.184;11.510;2023-03-18T11:48:39;95597.09;;;15.27;43.77
7662;BME280;30314;48.184;11.510;2023-03-18T11:54:01;95608.00;;;15.43;41.12
7662;BME280;30314;48.184;11.510;2023-03-18T11:59:22;95595.63;;;15.38;41.80
7662;BME280;30314;48.184;11.510;2023-03-18T12:02:11;95591.78;;;15.27;41.64
7662;BME280;30314;48.184;11.510;2023-03-18T12:09:55;95560.88;;;15.13;42.84
7662;BME280;30314;48.184;11.510;2023-03-18T12:12:47;95541.00;;;14.89;41.38
7662;BME280;30314;48.184;11.510;2023-03-18T12:20:50;95575.47;;;15.07;41.90
7662;BME280;30314;48.184;11.510;2023-03-18T12:23:52;95581.94;;;15.27;42.05
7662;BME280;30314;48.184;11.510;2023-03-18T12:26:31;95586.13;;;15.07;42.55
7662;BME280;30314;48.184;11.510;2023-03-18T12:29:36;95583.91;;;15.09;40.99
7662;BME280;30314;48.184;11.510;2023-03-18T12:32:14;95580.16;;;15.10;41.39
7662;BME280;30314;48.184;11.510;2023-03-18T12:43:27;95566.63;;;15.24;42.65
7662;BME280;30314;48.184;11.510;2023-03-18T12:46:14;95559.78;;;15.14;44.54
7662;BME280;30314;48.184;11.510;2023-03-18T12:48:50;95566.75;;;15.28;43.28
7662;BME280;30314;48.184;11.510;2023-03-18T12:51:23;95560.22;;;15.25;43.27
7662;BME280;30314;48.184;11.510;2023-03-18T12:54:03;95561.69;;;15.35;41.23
7662;BME280;30314;48.184;11.510;2023-03-18T12:56:35;95543.28;;;15.00;42.20
7662;BME280;30314;48.184;11.510;2023-03-18T12:59:13;95557.50;;;15.04;42.98
7662;BME280;30314;48.184;11.510;2023-03-18T13:01:48;95574.63;;;15.15;42.42
7662;BME280;30314;48.184;11.510;2023-03-18T13:04:20;95570.31;;;15.11;43.82
7662;BME280;30314;48.184;11.510;2023-03-18T13:07:02;95556.59;;;15.00;43.91
7662;BME280;30314;48.184;11.510;2023-03-18T13:09:41;95564.56;;;15.30;42.51
7662;BME280;30314;48.184;11.510;2023-03-18T13:12:31;95569.41;;;15.28;42.42
7662;BME280;30314;48.184;11.510;2023-03-18T13:15:30;95577.03;;;15.08;42.62
7662;BME280;30314;48.184;11.510;2023-03-18T13:18:16;95546.09;;;15.03;42.25
7662;BME280;30314;48.184;11.510;2023-03-18T13:20:45;95555.13;;;15.11;41.78
7662;BME280;30314;48.184;11.510;2023-03-18T13:26:23;95539.69;;;15.26;42.51
7662;BME280;30314;48.184;11.510;2023-03-18T13:42:56;95518.34;;;15.43;40.96
7662;BME280;30314;48.184;11.510;2023-03-18T13:45:36;95543.53;;;15.37;41.92
7662;BME280;30314;48.184;11.510;2023-03-18T13:48:07;95539.03;;;15.29;41.56
7662;BME280;30314;48.184;11.510;2023-03-18T13:50:47;95547.09;;;15.41;41.59
7662;BME280;30314;48.184;11.510;2023-03-18T13:53:27;95519.22;;;15.47;42.27
7662;BME280;30314;48.184;11.510;2023-03-18T13:58:23;95528.69;;;15.57;41.11
7662;BME280;30314;48.184;11.510;2023-03-18T14:13:39;95477.75;;;15.46;40.00
7662;BME280;30314;48.184;11.510;2023-03-18T14:16:11;95519.66;;;15.71;39.09
7662;BME280;30314;48.184;11.510;2023-03-18T14:18:38;95496.75;;;15.57;39.45
7662;BME280;30314;48.184;11.510;2023-03-18T14:21:21;95499.16;;;15.71;38.89
7662;BME280;30314;48.184;11.510;2023-03-18T14:24:12;95510.44;;;15.68;40.54
7662;BME280;30314;48.184;11.510;2023-03-18T14:32:29;95503.81;;;15.74;39.17
7662;BME280;30314;48.184;11.510;2023-03-18T14:37:58;95503.09;;;15.65;40.58
7662;BME280;30314;48.184;11.510;2023-03-18T14:40:26;95492.69;;;15.60;40.79
7662;BME280;30314;48.184;11.510;2023-03-18T14:42:58;95499.25;;;15.75;39.99
7662;BME280;30314;48.184;11.510;2023-03-18T14:45:39;95490.59;;;15.66;40.14
7662;BME280;30314;48.184;11.510;2023-03-18T14:50:46;95488.28;;;15.76;39.54